Slide Mountain Weather observations

Data are for 10 minute period ending at time listed.
 Day   Time   Solar   Ave.   Ave.  Ave.  Vector  Max.    Baro.  
  of    of     Rad.   Air    Rel.  Wind   Wind   Wind   Press.  
Year   Day            Temp.  Hum.  Speed  Dir.   Gust           
2020   (PST)  Kw/m2    F      %     mph   deg.    mph     mb.   
-----------------------------------------------------------------
 152   12:20   0.90   52.9    29    6.2   242     14.9    713.3 
 152   12:30   0.80   51.7    29    8.0   264     14.5    713.3 
 152   12:40   0.70   51.0    30    8.5   250     15.9    713.2 
 152   12:50   0.59   51.8    30    7.0   227     13.8    713.3 
 152   13:00   0.68   52.5    29    7.0   238     15.6    713.4 
 152   13:10   0.55   51.6    30    8.9   260     15.7    713.4 
 152   13:20   0.69   51.8    31    6.7   257     13.7    713.4 
 152   13:30   0.64   51.3    32    8.2   256     14.8    713.3 
 152   13:40   0.54   51.3    32    8.3   262     17.4    713.3 
 152   13:50   0.55   51.0    33    9.0   267     16.3    713.4 
 152   14:00   0.57   51.2    35   11.2   253     21.4    713.4 
 152   14:10   0.55   51.0    38   10.0   269     19.5    713.3 
 152   14:20   0.52   50.9    39   10.2   269     14.8    713.4 
 152   14:30   0.35   49.3    42   12.4   278     21.3    713.4 
 152   14:40   0.37   49.1    45   11.8   278     15.5    713.3 
 152   14:50   0.45   48.5    49   13.1   269     20.8    713.3 
 152   15:00   0.34   48.4    51    8.8   261     14.4    713.3 
 152   15:10   0.21   48.7    50    9.6   272     14.1    713.3 
 152   15:20   0.16   47.0    55   10.4   278     14.9    713.3 
 152   15:30   0.14   45.7    62   12.5   265     19.7    713.4 
 152   15:40   0.12   44.8    69   12.9   262     20.1    713.3 
 152   15:50   0.14   43.8    76   14.1   277     19.7    713.3 
 152   16:00   0.13   43.6    79   10.0   284     14.5    713.3 
 152   16:10   0.17   43.7    80   10.2   282     14.5    713.3 
 152   16:20   0.17   43.8    82   10.8   278     17.0    713.3 
 152   16:30   0.19   43.0    84   17.4   272     23.1    713.2 
 152   16:40   0.22   43.1    83   17.9   265     25.7    713.2 
 152   16:50   0.31   44.1    79   16.4   259     23.5    713.1 
 152   17:00   0.36   44.7    77   17.4   256     25.5    713.1 
 152   17:10   0.31   45.2    76   18.1   252     23.5    713.1 
 152   17:20   0.15   43.3    80   18.6   250     27.1    713.1 
 152   17:30   0.08   42.3    84   18.5   256     26.2    713.2 
 152   17:40   0.02   41.4    88   14.6   249     22.1    713.3 
 152   17:50   0.02   41.2    85   14.7   214     21.4    713.3 
 152   18:00   0.04   41.2    83   10.1   183     21.3    713.5 
 152   18:10   0.05   40.8    83    9.9   243     18.6    713.6 
 152   18:20   0.05   40.4    86   11.1   249     19.3    713.5 
 152   18:30   0.06   40.3    85   11.6   241     18.0    713.6 
 152   18:40   0.04   40.2    83   11.3   242     19.3    713.6 
 152   18:50   0.03   40.3    78   15.9   231     24.5    713.5 
 152   19:00   0.02   39.9    78   18.3   241     27.4    713.5 
 152   19:10   0.01   39.7    77   17.7   217     28.9    713.4 
 152   19:20   0.00   40.1    75   17.4   210     28.2    713.2 
 152   19:30   0.00   40.3    72   16.9   194     21.3    713.2 
 152   19:40   0.00   40.3    75   20.8   171     26.1    713.1 
 152   19:50   0.00   40.4    74   17.2   188     26.1    713.1 
 152   20:00   0.00   41.0    65   16.4   216     26.9    713.0 
 152   20:10   0.00   41.3    62   17.0   231     23.6    712.9 
 152   20:20   0.00   42.0    58   19.0   208     27.4    713.0 
 152   20:30   0.00   42.1    58   16.9   201     22.2    713.1 
 152   20:40   0.00   42.2    57   14.2   206     19.2    713.2 
 152   20:50   0.00   42.1    58   12.5   214     21.4    713.2 
 152   21:00   0.00   41.8    59   11.0   216     18.6    713.2 
 152   21:10   0.00   41.7    59   10.1   216     16.3    713.3 
 152   21:20   0.00   41.7    60   10.6   224     15.8    713.4 
 152   21:30   0.00   41.7    59   12.2   222     20.5    713.3 
 152   21:40   0.00   41.8    59   12.4   215     18.2    713.4 
 152   21:50   0.00   41.8    59   13.8   215     20.5    713.3 
 152   22:00   0.00   41.7    60   13.2   219     21.8    713.4 
 152   22:10   0.00   41.5    61   10.9   234     16.4    713.4 
 152   22:20   0.00   41.3    62   14.1   242     21.3    713.3 
 152   22:30   0.00   41.0    65   17.4   252     27.9    713.1 
 152   22:40   0.00   40.8    64   19.6   258     26.7    713.1 
 152   22:50   0.00   40.3    70   13.9   259     22.7    713.3 
 152   23:00   0.00   39.9    71   14.5   256     25.1    713.4 
 152   23:10   0.00   39.6    73   13.5   245     21.6    713.5 
 152   23:20   0.00   39.2    79    8.4   235     18.2    713.5 
 152   23:30   0.00   38.4    87   14.1   247     22.4    713.3 
 152   23:40   0.00   37.7    88   19.6   249     27.0    713.2 
 152   23:50   0.00   37.5    85   22.9   251     28.5    713.1 
 153    0:00   0.00   37.6    78   25.9   252     34.7    713.0 
 153    0:10   0.00   38.0    70   28.2   254     35.4    712.7 
 153    0:20   0.00   37.9    72   23.1   251     30.3    712.9 
 153    0:30   0.00   37.8    75   21.9   252     28.6    713.0 
 153    0:40   0.00   37.7    78   22.4   254     30.3    713.0 
 153    0:50   0.00   37.7    76   19.8   251     27.5    713.0 
 153    1:00   0.00   37.7    75   16.3   248     21.6    713.1 
 153    1:10   0.00   38.8    65   21.5   244     35.9    712.8 
 153    1:20   0.00   39.1    65   19.8   248     32.6    712.8 
 153    1:30   0.00   37.7    68   16.4   248     22.4    712.9 
 153    1:40   0.00   36.5    71   19.5   258     27.9    713.0 
 153    1:50   0.00   36.5    71   18.7   251     25.6    713.0 
 153    2:00   0.00   38.0    65   18.4   237     27.8    712.9 
 153    2:10   0.00   38.7    63   19.5   237     40.9    712.8 
 153    2:20   0.00   38.2    66   17.8   227     34.3    712.8 
 153    2:30   0.00   38.1    67   17.0   244     24.9    712.8 
 153    2:40   0.00   38.1    65   16.6   240     22.4    712.8 
 153    2:50   0.00   38.8    61   16.2   222     32.5    712.8 
 153    3:00   0.00   38.4    63   18.7   236     28.6    712.8 
 153    3:10   0.00   38.5    62   20.0   241     31.1    712.7 
 153    3:20   0.00   37.9    65   16.6   237     24.7    712.7 
 153    3:30   0.00   36.8    70   16.8   240     24.7    712.8 
 153    3:40   0.00   37.3    66   16.9   229     34.7    712.8 
 153    3:50   0.00   38.9    62   16.0   228     39.4    712.8 
 153    4:00   0.00   37.7    66   17.8   241     24.3    712.9 
 153    4:10   0.00   37.7    66   15.3   242     20.0    713.0 
 153    4:20   0.00   37.3    69   16.1   247     21.0    713.1 
 153    4:30   0.00   37.1    69   16.2   241     22.0    713.1 
 153    4:40   0.01   37.5    68   16.5   246     23.1    713.1 
 153    4:50   0.02   37.1    70   15.4   246     21.3    713.2 
 153    5:00   0.02   37.1    70   13.4   236     17.4    713.3 
 153    5:10   0.04   37.1    71   17.0   254     27.5    713.3 
 153    5:20   0.04   37.1    72   20.4   248     24.6    713.2 
 153    5:30   0.05   37.4    70   19.0   249     27.9    713.3 
 153    5:40   0.03   37.6    69   20.3   248     26.5    713.5 
 153    5:50   0.03   37.9    67   19.7   245     25.3    713.6 
 153    6:00   0.04   37.7    68   18.6   249     23.2    713.7 
 153    6:10   0.05   38.0    66   22.4   249     27.6    713.5 
 153    6:20   0.05   37.8    69   21.0   251     26.3    713.7 
 153    6:30   0.05   37.6    70   23.0   250     31.5    713.7 
 153    6:40   0.05   38.5    62   22.3   244     31.8    713.7 
 153    6:50   0.08   38.4    65   19.4   244     26.3    713.9 
 153    7:00   0.11   38.0    69   20.6   251     30.0    714.0 
 153    7:10   0.13   38.3    66   21.6   252     33.6    714.0 
 153    7:20   0.15   38.8    64   21.5   249     32.1    714.1 
 153    7:30   0.19   39.0    64   19.2   251     25.1    714.2 
 153    7:40   0.26   39.7    64   17.1   250     26.5    714.2 
 153    7:50   0.15   39.4    65   14.0   248     20.0    714.3 
 153    8:00   0.41   40.4    63   11.2   253     17.7    714.5 
 153    8:10   0.59   42.1    56   13.6   255     17.4    714.6 
 153    8:20   0.30   41.8    58   12.5   250     18.0    714.7 
 153    8:30   0.37   41.3    62   13.8   254     19.3    714.7 
 153    8:40   0.24   41.2    59   13.5   249     21.0    714.8 
 153    8:50   0.31   41.2    57   15.6   242     26.2    714.9 
 153    9:00   0.40   42.1    55   12.9   244     24.5    714.9 
 153    9:10   0.33   42.3    54   11.2   244     18.1    715.0 
 153    9:20   0.27   42.5    54   11.6   230     19.9    715.0 
 153    9:30   0.25   42.8    54    9.0   230     16.9    715.2 
 153    9:40   0.27   43.5    53    6.4   226     13.3    715.3 
 153    9:50   0.26   44.0    53    6.1   224     10.2    715.4 
 153   10:00   0.32   44.0    52   11.1   232     18.8    715.4 
 153   10:10   0.46   44.8    51    8.9   213     21.7    715.5 
 153   10:20   0.49   45.9    49    7.7   225     15.2    715.5 
 153   10:30   0.46   46.1    49    6.6   247     12.6    715.5 
 153   10:40   0.41   46.3    49    7.4   260     14.4    715.6 
 153   10:50   0.43   45.8    50    7.0   192     12.4    715.6 
 153   11:00   0.55   47.8    48    3.8   210      8.2    715.5 
 153   11:10   0.50   47.7    48    7.0   230     12.7    715.6 
 153   11:20   0.71   47.6    49    8.8   238     14.6    715.6 
 153   11:30   0.76   48.7    48    9.0   252     14.8    715.7 
 153   11:40   0.68   48.4    48    7.8   243     12.8    715.7 
 153   11:50   0.51   48.6    49    8.7   235     15.7    715.7 
 153   12:00   0.63   48.5    49    7.3   236     13.7    715.7 
 153   12:10   0.52   49.2    48    6.6   238     12.8    715.8 

Return to Slide Mountain graphs page.


Western Regional Climate Center,wrcc@dri.edu